sensor_id;sensor_type;location;lat;lon;timestamp;P1;durP1;ratioP1;P2;durP2;ratioP2
28170;SDS011;15458;53.346;-1.688;2022-07-25T00:01:54;6.95;;;2.40;;
28170;SDS011;15458;53.346;-1.688;2022-07-25T00:04:19;8.57;;;2.70;;
28170;SDS011;15458;53.346;-1.688;2022-07-25T00:06:46;5.28;;;2.78;;
28170;SDS011;15458;53.346;-1.688;2022-07-25T00:09:12;11.55;;;3.58;;
28170;SDS011;15458;53.346;-1.688;2022-07-25T00:11:38;10.90;;;2.85;;
28170;SDS011;15458;53.346;-1.688;2022-07-25T00:14:04;8.50;;;3.03;;
28170;SDS011;15458;53.346;-1.688;2022-07-25T00:16:30;13.63;;;3.03;;
28170;SDS011;15458;53.346;-1.688;2022-07-25T00:18:56;7.38;;;3.28;;
28170;SDS011;15458;53.346;-1.688;2022-07-25T00:21:21;16.55;;;4.03;;
28170;SDS011;15458;53.346;-1.688;2022-07-25T00:23:47;8.48;;;3.63;;
28170;SDS011;15458;53.346;-1.688;2022-07-25T00:26:13;10.00;;;3.20;;
28170;SDS011;15458;53.346;-1.688;2022-07-25T00:28:39;11.02;;;2.97;;
28170;SDS011;15458;53.346;-1.688;2022-07-25T00:31:04;11.55;;;3.92;;
28170;SDS011;15458;53.346;-1.688;2022-07-25T00:33:30;7.13;;;3.15;;
28170;SDS011;15458;53.346;-1.688;2022-07-25T00:35:56;8.75;;;2.97;;
28170;SDS011;15458;53.346;-1.688;2022-07-25T00:38:22;13.57;;;3.25;;
28170;SDS011;15458;53.346;-1.688;2022-07-25T00:40:47;10.10;;;3.13;;
28170;SDS011;15458;53.346;-1.688;2022-07-25T00:43:13;7.68;;;2.88;;
28170;SDS011;15458;53.346;-1.688;2022-07-25T00:45:39;10.23;;;3.10;;
28170;SDS011;15458;53.346;-1.688;2022-07-25T00:48:04;7.68;;;3.22;;
28170;SDS011;15458;53.346;-1.688;2022-07-25T00:50:33;9.73;;;3.30;;
28170;SDS011;15458;53.346;-1.688;2022-07-25T00:53:00;11.27;;;3.10;;
28170;SDS011;15458;53.346;-1.688;2022-07-25T00:55:26;10.68;;;3.10;;
28170;SDS011;15458;53.346;-1.688;2022-07-25T00:57:52;11.05;;;2.97;;
28170;SDS011;15458;53.346;-1.688;2022-07-25T01:00:18;9.68;;;3.95;;
28170;SDS011;15458;53.346;-1.688;2022-07-25T01:02:44;11.05;;;3.20;;
28170;SDS011;15458;53.346;-1.688;2022-07-25T01:05:10;9.05;;;3.28;;
28170;SDS011;15458;53.346;-1.688;2022-07-25T01:07:36;16.70;;;3.20;;
28170;SDS011;15458;53.346;-1.688;2022-07-25T01:10:03;7.30;;;2.80;;
28170;SDS011;15458;53.346;-1.688;2022-07-25T01:12:30;14.40;;;3.13;;
28170;SDS011;15458;53.346;-1.688;2022-07-25T01:15:08;9.40;;;3.08;;
28170;SDS011;15458;53.346;-1.688;2022-07-25T01:17:34;11.02;;;3.13;;
28170;SDS011;15458;53.346;-1.688;2022-07-25T01:20:00;10.60;;;2.97;;
28170;SDS011;15458;53.346;-1.688;2022-07-25T01:22:25;6.22;;;2.97;;
28170;SDS011;15458;53.346;-1.688;2022-07-25T01:24:52;10.60;;;3.15;;
28170;SDS011;15458;53.346;-1.688;2022-07-25T01:27:18;8.30;;;3.10;;
28170;SDS011;15458;53.346;-1.688;2022-07-25T01:29:44;8.50;;;3.80;;
28170;SDS011;15458;53.346;-1.688;2022-07-25T01:32:10;11.95;;;2.60;;
28170;SDS011;15458;53.346;-1.688;2022-07-25T01:34:36;11.60;;;2.72;;
28170;SDS011;15458;53.346;-1.688;2022-07-25T01:37:06;8.25;;;2.50;;
28170;SDS011;15458;53.346;-1.688;2022-07-25T01:39:31;10.00;;;2.60;;
28170;SDS011;15458;53.346;-1.688;2022-07-25T01:41:57;14.68;;;2.80;;
28170;SDS011;15458;53.346;-1.688;2022-07-25T01:44:25;6.53;;;2.42;;
28170;SDS011;15458;53.346;-1.688;2022-07-25T01:46:51;6.57;;;3.00;;
28170;SDS011;15458;53.346;-1.688;2022-07-25T01:49:17;8.40;;;2.55;;
28170;SDS011;15458;53.346;-1.688;2022-07-25T01:51:42;8.77;;;2.70;;
28170;SDS011;15458;53.346;-1.688;2022-07-25T01:54:09;5.70;;;2.72;;
28170;SDS011;15458;53.346;-1.688;2022-07-25T01:56:35;9.48;;;2.95;;
28170;SDS011;15458;53.346;-1.688;2022-07-25T01:59:00;12.27;;;3.28;;
28170;SDS011;15458;53.346;-1.688;2022-07-25T02:01:33;10.75;;;3.15;;
28170;SDS011;15458;53.346;-1.688;2022-07-25T02:03:58;10.25;;;3.10;;
28170;SDS011;15458;53.346;-1.688;2022-07-25T02:06:24;11.57;;;2.33;;
28170;SDS011;15458;53.346;-1.688;2022-07-25T02:08:51;14.77;;;2.55;;
28170;SDS011;15458;53.346;-1.688;2022-07-25T02:11:17;10.50;;;2.47;;
28170;SDS011;15458;53.346;-1.688;2022-07-25T02:13:43;6.88;;;3.20;;
28170;SDS011;15458;53.346;-1.688;2022-07-25T02:16:13;8.65;;;2.53;;
28170;SDS011;15458;53.346;-1.688;2022-07-25T02:18:38;9.23;;;2.70;;
28170;SDS011;15458;53.346;-1.688;2022-07-25T02:21:05;10.02;;;2.60;;
28170;SDS011;15458;53.346;-1.688;2022-07-25T02:23:32;9.00;;;2.67;;
28170;SDS011;15458;53.346;-1.688;2022-07-25T02:25:58;10.73;;;2.63;;
28170;SDS011;15458;53.346;-1.688;2022-07-25T02:28:24;13.75;;;2.55;;
28170;SDS011;15458;53.346;-1.688;2022-07-25T02:30:49;12.18;;;2.35;;
28170;SDS011;15458;53.346;-1.688;2022-07-25T02:33:15;8.82;;;2.50;;
28170;SDS011;15458;53.346;-1.688;2022-07-25T02:35:44;9.23;;;2.78;;
28170;SDS011;15458;53.346;-1.688;2022-07-25T02:38:10;7.75;;;2.30;;
28170;SDS011;15458;53.346;-1.688;2022-07-25T02:40:44;6.32;;;2.30;;
28170;SDS011;15458;53.346;-1.688;2022-07-25T02:43:31;9.60;;;2.35;;
28170;SDS011;15458;53.346;-1.688;2022-07-25T02:45:57;5.30;;;2.38;;
28170;SDS011;15458;53.346;-1.688;2022-07-25T02:48:22;9.98;;;2.63;;
28170;SDS011;15458;53.346;-1.688;2022-07-25T02:50:48;7.10;;;2.25;;
28170;SDS011;15458;53.346;-1.688;2022-07-25T02:53:14;5.57;;;1.77;;
28170;SDS011;15458;53.346;-1.688;2022-07-25T02:55:41;9.98;;;2.58;;
28170;SDS011;15458;53.346;-1.688;2022-07-25T02:58:06;7.13;;;2.40;;
28170;SDS011;15458;53.346;-1.688;2022-07-25T03:00:32;11.75;;;2.63;;
28170;SDS011;15458;53.346;-1.688;2022-07-25T03:02:58;5.88;;;2.38;;
28170;SDS011;15458;53.346;-1.688;2022-07-25T03:05:24;12.32;;;2.30;;
28170;SDS011;15458;53.346;-1.688;2022-07-25T03:07:50;10.40;;;2.25;;
28170;SDS011;15458;53.346;-1.688;2022-07-25T03:10:15;9.57;;;2.17;;
28170;SDS011;15458;53.346;-1.688;2022-07-25T03:12:42;5.30;;;2.00;;
28170;SDS011;15458;53.346;-1.688;2022-07-25T03:15:09;7.03;;;2.38;;
28170;SDS011;15458;53.346;-1.688;2022-07-25T03:17:37;4.55;;;2.03;;
28170;SDS011;15458;53.346;-1.688;2022-07-25T03:20:03;6.10;;;2.17;;
28170;SDS011;15458;53.346;-1.688;2022-07-25T03:22:30;6.93;;;2.40;;
28170;SDS011;15458;53.346;-1.688;2022-07-25T03:25:02;4.82;;;2.08;;
28170;SDS011;15458;53.346;-1.688;2022-07-25T03:27:28;6.35;;;2.80;;
28170;SDS011;15458;53.346;-1.688;2022-07-25T03:29:54;9.10;;;2.20;;
28170;SDS011;15458;53.346;-1.688;2022-07-25T03:32:21;6.80;;;2.50;;
28170;SDS011;15458;53.346;-1.688;2022-07-25T03:34:47;8.05;;;2.72;;
28170;SDS011;15458;53.346;-1.688;2022-07-25T03:37:19;8.70;;;2.28;;
28170;SDS011;15458;53.346;-1.688;2022-07-25T03:39:44;8.60;;;2.50;;
28170;SDS011;15458;53.346;-1.688;2022-07-25T03:42:10;10.02;;;2.47;;
28170;SDS011;15458;53.346;-1.688;2022-07-25T03:44:37;5.35;;;2.60;;
28170;SDS011;15458;53.346;-1.688;2022-07-25T03:47:06;5.68;;;2.53;;
28170;SDS011;15458;53.346;-1.688;2022-07-25T03:49:37;6.88;;;2.50;;
28170;SDS011;15458;53.346;-1.688;2022-07-25T03:52:03;5.38;;;2.20;;
28170;SDS011;15458;53.346;-1.688;2022-07-25T03:54:30;8.50;;;2.25;;
28170;SDS011;15458;53.346;-1.688;2022-07-25T03:56:56;6.72;;;2.30;;
28170;SDS011;15458;53.346;-1.688;2022-07-25T03:59:24;5.40;;;2.10;;
28170;SDS011;15458;53.346;-1.688;2022-07-25T04:01:50;7.63;;;2.15;;
28170;SDS011;15458;53.346;-1.688;2022-07-25T04:04:16;3.67;;;1.83;;
28170;SDS011;15458;53.346;-1.688;2022-07-25T04:06:43;7.10;;;2.00;;
28170;SDS011;15458;53.346;-1.688;2022-07-25T04:09:09;7.25;;;2.15;;
28170;SDS011;15458;53.346;-1.688;2022-07-25T04:11:37;8.63;;;2.58;;
28170;SDS011;15458;53.346;-1.688;2022-07-25T04:14:04;8.15;;;2.47;;
28170;SDS011;15458;53.346;-1.688;2022-07-25T04:16:30;9.30;;;2.40;;
28170;SDS011;15458;53.346;-1.688;2022-07-25T04:18:56;10.10;;;2.10;;
28170;SDS011;15458;53.346;-1.688;2022-07-25T04:21:23;10.45;;;2.42;;
28170;SDS011;15458;53.346;-1.688;2022-07-25T04:23:49;9.85;;;2.28;;
28170;SDS011;15458;53.346;-1.688;2022-07-25T04:26:15;5.30;;;2.20;;
28170;SDS011;15458;53.346;-1.688;2022-07-25T04:28:41;5.93;;;1.90;;
28170;SDS011;15458;53.346;-1.688;2022-07-25T04:31:07;6.28;;;2.22;;
28170;SDS011;15458;53.346;-1.688;2022-07-25T04:33:37;8.85;;;2.15;;
28170;SDS011;15458;53.346;-1.688;2022-07-25T04:36:04;6.43;;;1.85;;
28170;SDS011;15458;53.346;-1.688;2022-07-25T04:38:32;11.48;;;2.08;;
28170;SDS011;15458;53.346;-1.688;2022-07-25T04:40:59;4.45;;;1.80;;
28170;SDS011;15458;53.346;-1.688;2022-07-25T04:43:25;5.28;;;1.63;;
28170;SDS011;15458;53.346;-1.688;2022-07-25T04:45:51;7.45;;;2.25;;
28170;SDS011;15458;53.346;-1.688;2022-07-25T04:48:17;10.25;;;1.98;;
28170;SDS011;15458;53.346;-1.688;2022-07-25T04:50:45;4.43;;;1.73;;
28170;SDS011;15458;53.346;-1.688;2022-07-25T04:53:10;6.28;;;1.55;;
28170;SDS011;15458;53.346;-1.688;2022-07-25T04:55:36;4.90;;;1.60;;
28170;SDS011;15458;53.346;-1.688;2022-07-25T04:58:04;4.22;;;1.70;;
28170;SDS011;15458;53.346;-1.688;2022-07-25T05:00:30;3.65;;;1.40;;
28170;SDS011;15458;53.346;-1.688;2022-07-25T05:02:56;6.68;;;1.70;;
28170;SDS011;15458;53.346;-1.688;2022-07-25T05:05:22;4.75;;;1.52;;
28170;SDS011;15458;53.346;-1.688;2022-07-25T05:07:48;4.90;;;1.48;;
28170;SDS011;15458;53.346;-1.688;2022-07-25T05:10:14;5.28;;;1.65;;
28170;SDS011;15458;53.346;-1.688;2022-07-25T05:12:41;7.25;;;1.77;;
28170;SDS011;15458;53.346;-1.688;2022-07-25T05:15:08;6.25;;;1.65;;
28170;SDS011;15458;53.346;-1.688;2022-07-25T05:17:34;7.25;;;1.60;;
28170;SDS011;15458;53.346;-1.688;2022-07-25T05:19:59;5.57;;;1.60;;
28170;SDS011;15458;53.346;-1.688;2022-07-25T05:22:26;5.57;;;1.80;;
28170;SDS011;15458;53.346;-1.688;2022-07-25T05:24:51;2.25;;;1.40;;
28170;SDS011;15458;53.346;-1.688;2022-07-25T05:27:17;4.57;;;1.42;;
28170;SDS011;15458;53.346;-1.688;2022-07-25T05:29:43;3.53;;;1.27;;
28170;SDS011;15458;53.346;-1.688;2022-07-25T05:32:08;8.70;;;1.73;;
28170;SDS011;15458;53.346;-1.688;2022-07-25T05:34:34;9.73;;;1.85;;
28170;SDS011;15458;53.346;-1.688;2022-07-25T05:36:59;6.07;;;1.92;;
28170;SDS011;15458;53.346;-1.688;2022-07-25T05:39:25;5.40;;;1.75;;
28170;SDS011;15458;53.346;-1.688;2022-07-25T05:41:51;11.98;;;2.25;;
28170;SDS011;15458;53.346;-1.688;2022-07-25T05:44:17;7.47;;;2.20;;
28170;SDS011;15458;53.346;-1.688;2022-07-25T05:46:42;5.55;;;1.70;;
28170;SDS011;15458;53.346;-1.688;2022-07-25T05:49:11;4.75;;;1.95;;
28170;SDS011;15458;53.346;-1.688;2022-07-25T05:51:37;7.45;;;1.80;;
28170;SDS011;15458;53.346;-1.688;2022-07-25T05:54:04;5.55;;;1.73;;
28170;SDS011;15458;53.346;-1.688;2022-07-25T05:56:29;5.82;;;2.00;;
28170;SDS011;15458;53.346;-1.688;2022-07-25T05:58:55;7.43;;;1.92;;
28170;SDS011;15458;53.346;-1.688;2022-07-25T06:01:21;5.72;;;2.15;;
28170;SDS011;15458;53.346;-1.688;2022-07-25T06:03:47;7.10;;;1.83;;
28170;SDS011;15458;53.346;-1.688;2022-07-25T06:06:14;4.53;;;1.95;;
28170;SDS011;15458;53.346;-1.688;2022-07-25T06:08:39;3.42;;;1.63;;
28170;SDS011;15458;53.346;-1.688;2022-07-25T06:11:06;3.83;;;1.80;;
28170;SDS011;15458;53.346;-1.688;2022-07-25T06:13:32;4.75;;;1.45;;
28170;SDS011;15458;53.346;-1.688;2022-07-25T06:15:58;3.85;;;1.60;;
28170;SDS011;15458;53.346;-1.688;2022-07-25T06:18:24;4.13;;;2.05;;
28170;SDS011;15458;53.346;-1.688;2022-07-25T06:20:50;4.65;;;1.48;;
28170;SDS011;15458;53.346;-1.688;2022-07-25T06:23:16;4.65;;;1.60;;
28170;SDS011;15458;53.346;-1.688;2022-07-25T06:25:42;7.20;;;2.55;;
28170;SDS011;15458;53.346;-1.688;2022-07-25T06:28:09;7.40;;;1.98;;
28170;SDS011;15458;53.346;-1.688;2022-07-25T06:30:35;3.28;;;1.27;;
28170;SDS011;15458;53.346;-1.688;2022-07-25T06:33:01;6.05;;;1.40;;
28170;SDS011;15458;53.346;-1.688;2022-07-25T06:35:27;6.68;;;1.35;;
28170;SDS011;15458;53.346;-1.688;2022-07-25T06:37:53;3.13;;;1.30;;
28170;SDS011;15458;53.346;-1.688;2022-07-25T06:40:19;9.30;;;2.65;;
28170;SDS011;15458;53.346;-1.688;2022-07-25T06:42:45;4.10;;;1.30;;
28170;SDS011;15458;53.346;-1.688;2022-07-25T06:45:12;4.15;;;1.35;;
28170;SDS011;15458;53.346;-1.688;2022-07-25T06:47:39;2.08;;;1.08;;
28170;SDS011;15458;53.346;-1.688;2022-07-25T06:50:06;4.03;;;1.50;;
28170;SDS011;15458;53.346;-1.688;2022-07-25T06:52:34;3.30;;;1.50;;
28170;SDS011;15458;53.346;-1.688;2022-07-25T06:55:02;4.57;;;1.75;;
28170;SDS011;15458;53.346;-1.688;2022-07-25T06:57:28;3.28;;;1.60;;
28170;SDS011;15458;53.346;-1.688;2022-07-25T06:59:54;6.70;;;1.70;;
28170;SDS011;15458;53.346;-1.688;2022-07-25T07:02:20;2.40;;;1.50;;
28170;SDS011;15458;53.346;-1.688;2022-07-25T07:04:47;5.07;;;1.67;;
28170;SDS011;15458;53.346;-1.688;2022-07-25T07:07:13;3.45;;;1.30;;
28170;SDS011;15458;53.346;-1.688;2022-07-25T07:09:40;2.25;;;1.27;;
28170;SDS011;15458;53.346;-1.688;2022-07-25T07:12:06;4.15;;;1.58;;
28170;SDS011;15458;53.346;-1.688;2022-07-25T07:14:33;3.38;;;1.27;;
28170;SDS011;15458;53.346;-1.688;2022-07-25T07:17:01;2.13;;;1.10;;
28170;SDS011;15458;53.346;-1.688;2022-07-25T07:19:28;2.42;;;1.25;;
28170;SDS011;15458;53.346;-1.688;2022-07-25T07:21:54;5.03;;;1.50;;
28170;SDS011;15458;53.346;-1.688;2022-07-25T07:24:19;2.78;;;1.33;;
28170;SDS011;15458;53.346;-1.688;2022-07-25T07:26:45;2.65;;;1.60;;
28170;SDS011;15458;53.346;-1.688;2022-07-25T07:29:11;2.38;;;1.60;;
28170;SDS011;15458;53.346;-1.688;2022-07-25T07:31:41;3.40;;;2.10;;
28170;SDS011;15458;53.346;-1.688;2022-07-25T07:34:07;3.72;;;2.03;;
28170;SDS011;15458;53.346;-1.688;2022-07-25T07:36:33;3.80;;;2.75;;
28170;SDS011;15458;53.346;-1.688;2022-07-25T07:38:58;6.40;;;3.20;;
28170;SDS011;15458;53.346;-1.688;2022-07-25T07:41:24;4.93;;;2.97;;
28170;SDS011;15458;53.346;-1.688;2022-07-25T07:43:50;7.15;;;3.13;;
28170;SDS011;15458;53.346;-1.688;2022-07-25T07:46:16;4.72;;;3.78;;
28170;SDS011;15458;53.346;-1.688;2022-07-25T07:48:45;6.72;;;4.55;;
28170;SDS011;15458;53.346;-1.688;2022-07-25T07:51:13;10.13;;;5.38;;
28170;SDS011;15458;53.346;-1.688;2022-07-25T07:53:39;8.82;;;5.40;;
28170;SDS011;15458;53.346;-1.688;2022-07-25T07:56:23;5.95;;;5.05;;
28170;SDS011;15458;53.346;-1.688;2022-07-25T07:58:49;11.63;;;7.20;;
28170;SDS011;15458;53.346;-1.688;2022-07-25T08:01:16;9.50;;;6.05;;
28170;SDS011;15458;53.346;-1.688;2022-07-25T08:03:42;10.38;;;6.70;;
28170;SDS011;15458;53.346;-1.688;2022-07-25T08:06:09;9.02;;;6.55;;
28170;SDS011;15458;53.346;-1.688;2022-07-25T08:08:35;10.70;;;6.38;;
28170;SDS011;15458;53.346;-1.688;2022-07-25T08:11:01;8.95;;;5.90;;
28170;SDS011;15458;53.346;-1.688;2022-07-25T08:13:28;8.15;;;5.63;;
28170;SDS011;15458;53.346;-1.688;2022-07-25T08:15:56;10.10;;;6.43;;
28170;SDS011;15458;53.346;-1.688;2022-07-25T08:18:24;10.57;;;6.88;;
28170;SDS011;15458;53.346;-1.688;2022-07-25T08:20:51;9.73;;;6.25;;
28170;SDS011;15458;53.346;-1.688;2022-07-25T08:23:17;11.70;;;6.22;;
28170;SDS011;15458;53.346;-1.688;2022-07-25T08:25:43;10.05;;;6.97;;
28170;SDS011;15458;53.346;-1.688;2022-07-25T08:28:10;13.05;;;7.90;;
28170;SDS011;15458;53.346;-1.688;2022-07-25T08:30:39;9.13;;;6.60;;
28170;SDS011;15458;53.346;-1.688;2022-07-25T08:33:06;10.43;;;8.18;;
28170;SDS011;15458;53.346;-1.688;2022-07-25T08:35:44;8.68;;;7.75;;
28170;SDS011;15458;53.346;-1.688;2022-07-25T08:38:11;12.88;;;7.88;;
28170;SDS011;15458;53.346;-1.688;2022-07-25T08:40:40;12.27;;;7.80;;
28170;SDS011;15458;53.346;-1.688;2022-07-25T08:43:08;10.95;;;6.63;;
28170;SDS011;15458;53.346;-1.688;2022-07-25T08:51:09;8.32;;;6.07;;
28170;SDS011;15458;53.346;-1.688;2022-07-25T08:53:38;11.30;;;7.43;;
28170;SDS011;15458;53.346;-1.688;2022-07-25T08:56:07;7.00;;;6.40;;
28170;SDS011;15458;53.346;-1.688;2022-07-25T08:58:33;9.00;;;6.43;;
28170;SDS011;15458;53.346;-1.688;2022-07-25T09:00:59;9.27;;;6.72;;
28170;SDS011;15458;53.346;-1.688;2022-07-25T09:03:25;8.10;;;6.68;;
28170;SDS011;15458;53.346;-1.688;2022-07-25T09:05:51;8.48;;;6.65;;
28170;SDS011;15458;53.346;-1.688;2022-07-25T09:08:16;7.25;;;6.55;;
28170;SDS011;15458;53.346;-1.688;2022-07-25T09:10:50;7.35;;;6.53;;
28170;SDS011;15458;53.346;-1.688;2022-07-25T09:13:17;7.15;;;6.45;;
28170;SDS011;15458;53.346;-1.688;2022-07-25T09:15:46;7.65;;;6.63;;
28170;SDS011;15458;53.346;-1.688;2022-07-25T09:18:15;6.80;;;6.10;;
28170;SDS011;15458;53.346;-1.688;2022-07-25T09:20:47;7.20;;;5.80;;
28170;SDS011;15458;53.346;-1.688;2022-07-25T09:28:38;4.97;;;4.03;;
28170;SDS011;15458;53.346;-1.688;2022-07-25T09:31:30;5.05;;;3.53;;
28170;SDS011;15458;53.346;-1.688;2022-07-25T09:33:56;4.03;;;3.70;;
28170;SDS011;15458;53.346;-1.688;2022-07-25T09:36:24;4.53;;;3.40;;
28170;SDS011;15458;53.346;-1.688;2022-07-25T09:38:57;5.10;;;3.47;;
28170;SDS011;15458;53.346;-1.688;2022-07-25T09:41:32;5.40;;;3.70;;
28170;SDS011;15458;53.346;-1.688;2022-07-25T09:43:58;6.15;;;4.68;;
28170;SDS011;15458;53.346;-1.688;2022-07-25T09:46:30;5.28;;;4.78;;
28170;SDS011;15458;53.346;-1.688;2022-07-25T09:48:58;5.93;;;5.15;;
28170;SDS011;15458;53.346;-1.688;2022-07-25T09:51:24;6.90;;;6.18;;
28170;SDS011;15458;53.346;-1.688;2022-07-25T09:53:54;7.15;;;6.13;;
28170;SDS011;15458;53.346;-1.688;2022-07-25T09:56:20;7.90;;;5.45;;
28170;SDS011;15458;53.346;-1.688;2022-07-25T09:58:47;7.93;;;5.28;;
28170;SDS011;15458;53.346;-1.688;2022-07-25T10:01:17;5.53;;;5.00;;
28170;SDS011;15458;53.346;-1.688;2022-07-25T10:03:50;4.70;;;3.83;;
28170;SDS011;15458;53.346;-1.688;2022-07-25T10:06:33;4.43;;;4.03;;
28170;SDS011;15458;53.346;-1.688;2022-07-25T10:09:11;3.10;;;2.80;;
28170;SDS011;15458;53.346;-1.688;2022-07-25T10:11:37;3.03;;;2.55;;
28170;SDS011;15458;53.346;-1.688;2022-07-25T10:14:10;1.88;;;1.65;;
28170;SDS011;15458;53.346;-1.688;2022-07-25T10:16:45;1.45;;;1.35;;
28170;SDS011;15458;53.346;-1.688;2022-07-25T10:19:11;1.30;;;1.20;;
28170;SDS011;15458;53.346;-1.688;2022-07-25T10:21:40;1.70;;;0.80;;
28170;SDS011;15458;53.346;-1.688;2022-07-25T10:24:07;2.63;;;0.98;;
28170;SDS011;15458;53.346;-1.688;2022-07-25T10:26:34;1.52;;;1.10;;
28170;SDS011;15458;53.346;-1.688;2022-07-25T10:29:10;1.77;;;1.00;;
28170;SDS011;15458;53.346;-1.688;2022-07-25T10:31:41;2.72;;;1.15;;
28170;SDS011;15458;53.346;-1.688;2022-07-25T10:34:10;1.10;;;1.00;;
28170;SDS011;15458;53.346;-1.688;2022-07-25T10:39:11;1.60;;;1.20;;
28170;SDS011;15458;53.346;-1.688;2022-07-25T10:41:40;1.17;;;0.93;;
28170;SDS011;15458;53.346;-1.688;2022-07-25T10:44:14;1.70;;;1.10;;
28170;SDS011;15458;53.346;-1.688;2022-07-25T10:46:41;2.03;;;1.25;;
28170;SDS011;15458;53.346;-1.688;2022-07-25T10:49:14;4.20;;;1.27;;
28170;SDS011;15458;53.346;-1.688;2022-07-25T10:51:55;3.70;;;1.73;;
28170;SDS011;15458;53.346;-1.688;2022-07-25T10:54:30;1.95;;;1.23;;
28170;SDS011;15458;53.346;-1.688;2022-07-25T10:57:14;1.73;;;1.15;;
28170;SDS011;15458;53.346;-1.688;2022-07-25T10:59:40;1.38;;;1.02;;
28170;SDS011;15458;53.346;-1.688;2022-07-25T11:02:07;2.53;;;1.00;;
28170;SDS011;15458;53.346;-1.688;2022-07-25T11:04:44;1.38;;;0.80;;
28170;SDS011;15458;53.346;-1.688;2022-07-25T11:07:23;1.10;;;0.80;;
28170;SDS011;15458;53.346;-1.688;2022-07-25T11:09:56;1.48;;;0.88;;
28170;SDS011;15458;53.346;-1.688;2022-07-25T11:12:39;1.65;;;0.88;;
28170;SDS011;15458;53.346;-1.688;2022-07-25T11:15:12;1.10;;;0.98;;
28170;SDS011;15458;53.346;-1.688;2022-07-25T11:17:52;2.97;;;1.13;;
28170;SDS011;15458;53.346;-1.688;2022-07-25T11:20:27;5.18;;;1.77;;
28170;SDS011;15458;53.346;-1.688;2022-07-25T11:23:11;2.15;;;1.40;;
28170;SDS011;15458;53.346;-1.688;2022-07-25T11:26:10;4.90;;;1.63;;
28170;SDS011;15458;53.346;-1.688;2022-07-25T11:28:43;2.17;;;1.40;;
28170;SDS011;15458;53.346;-1.688;2022-07-25T11:31:14;3.70;;;1.40;;
28170;SDS011;15458;53.346;-1.688;2022-07-25T11:33:43;1.58;;;1.20;;
28170;SDS011;15458;53.346;-1.688;2022-07-25T11:36:13;2.42;;;1.70;;
28170;SDS011;15458;53.346;-1.688;2022-07-25T11:38:42;2.65;;;1.50;;
28170;SDS011;15458;53.346;-1.688;2022-07-25T11:41:12;1.90;;;1.20;;
28170;SDS011;15458;53.346;-1.688;2022-07-25T11:43:46;3.72;;;1.48;;
28170;SDS011;15458;53.346;-1.688;2022-07-25T11:46:17;3.08;;;1.40;;
28170;SDS011;15458;53.346;-1.688;2022-07-25T11:48:43;2.50;;;1.60;;
28170;SDS011;15458;53.346;-1.688;2022-07-25T11:51:39;2.95;;;1.30;;
28170;SDS011;15458;53.346;-1.688;2022-07-25T11:54:08;3.15;;;1.30;;
28170;SDS011;15458;53.346;-1.688;2022-07-25T11:56:41;2.85;;;1.35;;
28170;SDS011;15458;53.346;-1.688;2022-07-25T11:59:10;8.48;;;2.45;;
28170;SDS011;15458;53.346;-1.688;2022-07-25T12:01:51;4.43;;;1.58;;
28170;SDS011;15458;53.346;-1.688;2022-07-25T12:05:16;3.92;;;1.60;;
28170;SDS011;15458;53.346;-1.688;2022-07-25T12:07:45;6.05;;;1.90;;
28170;SDS011;15458;53.346;-1.688;2022-07-25T12:10:21;5.88;;;1.80;;
28170;SDS011;15458;53.346;-1.688;2022-07-25T12:12:51;5.78;;;1.60;;
28170;SDS011;15458;53.346;-1.688;2022-07-25T12:15:25;3.80;;;1.65;;
28170;SDS011;15458;53.346;-1.688;2022-07-25T12:17:56;3.58;;;1.30;;
28170;SDS011;15458;53.346;-1.688;2022-07-25T12:20:24;1.73;;;1.02;;
28170;SDS011;15458;53.346;-1.688;2022-07-25T12:22:55;2.47;;;0.98;;
28170;SDS011;15458;53.346;-1.688;2022-07-25T12:25:25;1.10;;;1.00;;
28170;SDS011;15458;53.346;-1.688;2022-07-25T12:27:51;1.40;;;1.00;;
28170;SDS011;15458;53.346;-1.688;2022-07-25T12:30:17;1.30;;;0.90;;
28170;SDS011;15458;53.346;-1.688;2022-07-25T12:32:43;0.90;;;0.63;;
28170;SDS011;15458;53.346;-1.688;2022-07-25T12:35:10;1.20;;;0.93;;
28170;SDS011;15458;53.346;-1.688;2022-07-25T12:37:38;2.67;;;1.17;;
28170;SDS011;15458;53.346;-1.688;2022-07-25T12:40:05;1.17;;;0.85;;
28170;SDS011;15458;53.346;-1.688;2022-07-25T12:42:35;3.05;;;1.50;;
28170;SDS011;15458;53.346;-1.688;2022-07-25T12:45:01;2.78;;;1.50;;
28170;SDS011;15458;53.346;-1.688;2022-07-25T12:47:28;2.10;;;1.63;;
28170;SDS011;15458;53.346;-1.688;2022-07-25T12:49:56;8.15;;;2.13;;
28170;SDS011;15458;53.346;-1.688;2022-07-25T12:52:22;4.55;;;1.80;;
28170;SDS011;15458;53.346;-1.688;2022-07-25T12:54:48;7.93;;;2.30;;
28170;SDS011;15458;53.346;-1.688;2022-07-25T12:57:17;2.40;;;1.48;;
28170;SDS011;15458;53.346;-1.688;2022-07-25T12:59:47;6.05;;;2.30;;
28170;SDS011;15458;53.346;-1.688;2022-07-25T13:02:16;5.47;;;2.10;;
28170;SDS011;15458;53.346;-1.688;2022-07-25T13:04:42;3.83;;;2.25;;
28170;SDS011;15458;53.346;-1.688;2022-07-25T13:07:13;6.57;;;2.10;;
28170;SDS011;15458;53.346;-1.688;2022-07-25T13:09:52;5.90;;;1.85;;
28170;SDS011;15458;53.346;-1.688;2022-07-25T13:12:20;6.22;;;2.08;;
28170;SDS011;15458;53.346;-1.688;2022-07-25T13:15:14;5.82;;;2.00;;
28170;SDS011;15458;53.346;-1.688;2022-07-25T13:17:42;4.90;;;1.90;;
28170;SDS011;15458;53.346;-1.688;2022-07-25T13:20:10;5.85;;;2.05;;
28170;SDS011;15458;53.346;-1.688;2022-07-25T13:22:36;2.53;;;1.17;;
28170;SDS011;15458;53.346;-1.688;2022-07-25T13:25:02;5.25;;;1.67;;
28170;SDS011;15458;53.346;-1.688;2022-07-25T13:27:28;2.35;;;1.40;;
28170;SDS011;15458;53.346;-1.688;2022-07-25T13:29:54;2.90;;;1.42;;
28170;SDS011;15458;53.346;-1.688;2022-07-25T13:32:22;5.82;;;1.00;;
28170;SDS011;15458;53.346;-1.688;2022-07-25T13:34:51;4.38;;;1.27;;
28170;SDS011;15458;53.346;-1.688;2022-07-25T13:37:20;5.13;;;1.35;;
28170;SDS011;15458;53.346;-1.688;2022-07-25T13:39:47;2.47;;;1.00;;
28170;SDS011;15458;53.346;-1.688;2022-07-25T13:42:12;11.43;;;1.48;;
28170;SDS011;15458;53.346;-1.688;2022-07-25T13:44:38;5.38;;;1.00;;
28170;SDS011;15458;53.346;-1.688;2022-07-25T13:47:04;5.53;;;1.38;;
28170;SDS011;15458;53.346;-1.688;2022-07-25T13:49:30;2.95;;;1.23;;
28170;SDS011;15458;53.346;-1.688;2022-07-25T13:51:56;4.07;;;1.05;;
28170;SDS011;15458;53.346;-1.688;2022-07-25T13:54:24;4.53;;;1.40;;
28170;SDS011;15458;53.346;-1.688;2022-07-25T13:56:53;5.13;;;1.40;;
28170;SDS011;15458;53.346;-1.688;2022-07-25T13:59:27;4.32;;;1.52;;
28170;SDS011;15458;53.346;-1.688;2022-07-25T14:01:56;3.38;;;1.60;;
28170;SDS011;15458;53.346;-1.688;2022-07-25T14:04:22;5.47;;;1.50;;
28170;SDS011;15458;53.346;-1.688;2022-07-25T14:06:58;1.65;;;1.50;;
28170;SDS011;15458;53.346;-1.688;2022-07-25T14:09:30;2.17;;;1.38;;
28170;SDS011;15458;53.346;-1.688;2022-07-25T14:11:57;4.78;;;1.60;;
28170;SDS011;15458;53.346;-1.688;2022-07-25T14:14:46;4.72;;;1.70;;
28170;SDS011;15458;53.346;-1.688;2022-07-25T14:17:14;4.35;;;1.80;;
28170;SDS011;15458;53.346;-1.688;2022-07-25T14:19:40;4.03;;;1.50;;
28170;SDS011;15458;53.346;-1.688;2022-07-25T14:22:05;8.07;;;1.42;;
28170;SDS011;15458;53.346;-1.688;2022-07-25T14:24:31;4.07;;;1.63;;
28170;SDS011;15458;53.346;-1.688;2022-07-25T14:26:59;1.77;;;1.23;;
28170;SDS011;15458;53.346;-1.688;2022-07-25T14:29:26;4.05;;;1.90;;
28170;SDS011;15458;53.346;-1.688;2022-07-25T14:31:55;4.65;;;1.83;;
28170;SDS011;15458;53.346;-1.688;2022-07-25T14:34:23;4.72;;;1.83;;
28170;SDS011;15458;53.346;-1.688;2022-07-25T14:36:57;5.28;;;1.90;;
28170;SDS011;15458;53.346;-1.688;2022-07-25T14:39:23;5.90;;;1.50;;
28170;SDS011;15458;53.346;-1.688;2022-07-25T14:41:57;7.80;;;1.80;;
28170;SDS011;15458;53.346;-1.688;2022-07-25T14:44:26;4.55;;;1.42;;
28170;SDS011;15458;53.346;-1.688;2022-07-25T14:46:53;5.68;;;1.40;;
28170;SDS011;15458;53.346;-1.688;2022-07-25T14:49:23;4.63;;;1.60;;
28170;SDS011;15458;53.346;-1.688;2022-07-25T14:51:49;3.75;;;1.30;;
28170;SDS011;15458;53.346;-1.688;2022-07-25T14:54:15;2.45;;;1.70;;